Time;durP1;ratioP1;P1;durP2;ratioP2;P2;SDS_P1;SDS_P2;PMS_P1;PMS_P2;Temp;Humidity;BMP_temperature;BMP_pressure;BME280_temperature;BME280_humidity;BME280_pressure;Samples;Min_cycle;Max_cycle;Signal;HPM_P1;HPM_P2
2023/10/23 00:00:51;;;;;;;;;3.25;3.25;;;;;12.99;78.73;99566.56;5095006;28;8837;-57
2023/10/23 00:03:19;;;;;;;;;3.75;3.00;;;;;12.97;79.03;99560.53;5095648;28;8907;-57
2023/10/23 00:05:47;;;;;;;;;1.50;1.50;;;;;12.97;79.07;99555.16;5095308;28;8824;-57
2023/10/23 00:08:15;;;;;;;;;3.25;3.00;;;;;12.98;78.90;99564.06;5094815;28;8839;-58
2023/10/23 00:10:44;;;;;;;;;0.00;0.00;;;;;13.00;78.90;99564.72;5095126;28;8854;-57
2023/10/23 00:13:12;;;;;;;;;2.00;2.00;;;;;13.00;78.83;99568.22;5095070;28;8866;-57
2023/10/23 00:15:39;;;;;;;;;3.25;3.00;;;;;13.01;78.43;99569.94;5094973;28;8978;-57
2023/10/23 00:18:07;;;;;;;;;3.00;3.00;;;;;13.01;78.54;99569.94;5095060;28;8842;-57
2023/10/23 00:20:36;;;;;;;;;4.00;4.00;;;;;13.01;79.13;99567.28;5095801;28;8819;-57
2023/10/23 00:23:04;;;;;;;;;5.00;3.50;;;;;13.01;78.75;99575.28;5095001;28;8849;-58
2023/10/23 00:25:32;;;;;;;;;3.00;3.00;;;;;13.01;79.07;99574.44;5095429;28;8887;-57
2023/10/23 00:27:59;;;;;;;;;3.00;3.00;;;;;12.98;78.91;99559.53;5095126;28;8820;-57
2023/10/23 00:30:27;;;;;;;;;3.75;3.25;;;;;12.96;79.22;99566.00;5094543;28;8835;-59
2023/10/23 00:32:54;;;;;;;;;5.50;4.00;;;;;12.94;78.94;99559.94;5095000;28;8820;-57
2023/10/23 00:35:22;;;;;;;;;3.25;3.00;;;;;12.91;79.02;99563.75;5095235;28;8811;-56
2023/10/23 00:37:50;;;;;;;;;3.00;3.00;;;;;12.89;78.60;99580.91;5094821;28;8825;-58
2023/10/23 00:40:17;;;;;;;;;3.25;3.25;;;;;12.88;79.00;99580.06;5094947;28;8831;-57
2023/10/23 00:42:45;;;;;;;;;6.00;6.00;;;;;12.88;79.18;99576.53;5094654;28;9539;-57
2023/10/23 00:45:13;;;;;;;;;4.00;4.00;;;;;12.88;79.04;99585.41;5094983;28;8835;-57
2023/10/23 00:47:40;;;;;;;;;4.00;4.00;;;;;12.88;79.54;99581.91;5094756;28;8816;-57
2023/10/23 00:50:08;;;;;;;;;4.00;4.00;;;;;12.89;79.07;99588.91;5094751;28;9512;-57
2023/10/23 00:52:36;;;;;;;;;4.00;4.00;;;;;12.90;79.01;99575.41;5094821;28;8928;-57
2023/10/23 00:55:03;;;;;;;;;3.50;3.50;;;;;12.91;79.16;99584.28;5094793;28;8829;-59
2023/10/23 00:57:31;;;;;;;;;4.00;3.75;;;;;12.90;79.15;99574.59;5095521;28;8815;-57
2023/10/23 00:59:58;;;;;;;;;5.00;4.00;;;;;12.92;78.78;99585.97;5094570;28;8803;-57
2023/10/23 01:02:26;;;;;;;;;3.00;3.00;;;;;12.93;79.00;99585.81;5094608;28;8881;-56
2023/10/23 01:04:54;;;;;;;;;6.00;4.50;;;;;12.94;78.45;99587.56;5094287;28;8831;-56
2023/10/23 01:07:22;;;;;;;;;4.50;4.00;;;;;12.95;79.07;99585.69;5094984;28;8827;-57
2023/10/23 01:09:50;;;;;;;;;3.00;3.00;;;;;12.96;78.61;99582.03;5094345;28;8830;-57
2023/10/23 01:12:17;;;;;;;;;4.00;3.25;;;;;12.98;78.95;99585.44;5096771;28;8835;-57
2023/10/23 01:14:45;;;;;;;;;4.00;3.50;;;;;12.98;78.76;99596.13;5098617;28;9501;-57
2023/10/23 01:17:12;;;;;;;;;5.00;4.50;;;;;12.98;78.40;99590.78;5098393;28;8808;-57
2023/10/23 01:19:40;;;;;;;;;7.25;5.00;;;;;12.98;78.96;99591.59;5098655;28;8816;-57
2023/10/23 01:22:08;;;;;;;;;5.00;5.00;;;;;12.99;78.85;99595.13;5098417;28;9474;-57
2023/10/23 01:24:36;;;;;;;;;3.00;2.00;;;;;12.98;78.89;99591.59;5098140;28;8924;-57
2023/10/23 01:27:04;;;;;;;;;3.50;3.50;;;;;12.97;78.71;99589.06;5098129;28;8918;-57
2023/10/23 01:29:31;;;;;;;;;5.00;4.00;;;;;12.94;79.17;99587.56;5098275;28;8845;-57
2023/10/23 01:31:59;;;;;;;;;4.00;3.50;;;;;12.93;79.03;99593.00;5098392;28;8815;-57
2023/10/23 01:34:27;;;;;;;;;3.00;3.00;;;;;12.93;78.91;99591.16;5098430;28;8826;-57
2023/10/23 01:36:54;;;;;;;;;3.50;3.00;;;;;12.95;78.76;99585.69;5097929;28;8843;-58
2023/10/23 01:39:22;;;;;;;;;4.00;4.00;;;;;12.96;78.61;99587.38;5097694;28;8816;-58
2023/10/23 01:41:50;;;;;;;;;3.00;1.00;;;;;12.98;78.97;99590.78;5097995;28;8921;-57
2023/10/23 01:44:17;;;;;;;;;2.50;1.00;;;;;13.00;78.85;99602.97;5098143;28;8824;-57
2023/10/23 01:46:45;;;;;;;;;6.00;4.50;;;;;13.02;78.70;99595.69;5097767;28;8839;-57
2023/10/23 01:49:13;;;;;;;;;3.00;3.00;;;;;13.05;78.23;99591.88;5097656;28;8812;-57
2023/10/23 01:51:40;;;;;;;;;4.00;3.25;;;;;13.06;77.99;99591.72;5097766;28;8823;-57
2023/10/23 01:54:08;;;;;;;;;4.50;3.50;;;;;13.06;78.05;99593.56;5097530;28;8822;-57
2023/10/23 01:56:36;;;;;;;;;5.00;4.00;;;;;13.04;78.47;99600.88;5097298;28;8816;-57
2023/10/23 01:59:03;;;;;;;;;4.50;4.00;;;;;13.02;78.14;99592.16;5098242;28;8870;-57
2023/10/23 02:01:32;;;;;;;;;3.00;3.00;;;;;13.01;78.28;99595.81;5097513;28;8807;-57
2023/10/23 02:04:00;;;;;;;;;0.50;0.00;;;;;12.97;78.78;99589.06;5097467;28;8816;-59
2023/10/23 02:06:28;;;;;;;;;3.50;3.25;;;;;12.94;79.02;99589.34;5097959;28;8912;-57
2023/10/23 02:08:56;;;;;;;;;4.00;4.00;;;;;12.91;78.57;99586.97;5097134;28;8818;-57
2023/10/23 02:11:24;;;;;;;;;2.50;0.75;;;;;12.86;79.01;99595.44;5096960;28;8843;-57
2023/10/23 02:13:51;;;;;;;;;4.50;4.50;;;;;12.82;78.81;99593.16;5098191;28;9839;-57
2023/10/23 02:16:19;;;;;;;;;3.50;3.50;;;;;12.78;79.45;99595.31;5097772;28;8808;-57
2023/10/23 02:18:47;;;;;;;;;4.00;4.00;;;;;12.74;79.14;99598.38;5097093;28;9517;-57
2023/10/23 02:21:15;;;;;;;;;4.00;4.00;;;;;12.71;79.12;99593.34;5097337;28;9236;-57
2023/10/23 02:23:42;;;;;;;;;6.25;4.00;;;;;12.67;79.31;99591.94;5096279;28;8807;-57
2023/10/23 02:26:22;;;;;;;;;4.00;4.00;;;;;12.63;79.56;99593.22;5096819;28;8827;-57
2023/10/23 02:28:53;;;;;;;;;4.50;3.75;;;;;12.58;80.12;99592.78;5097452;28;8835;-57
2023/10/23 02:31:20;;;;;;;;;3.00;3.00;;;;;12.51;80.02;99597.00;5096726;28;8823;-59
2023/10/23 02:33:48;;;;;;;;;4.00;3.00;;;;;12.44;79.87;99603.91;5097272;28;8823;-57
2023/10/23 02:36:16;;;;;;;;;2.50;2.50;;;;;12.35;79.94;99597.63;5097293;28;9628;-57
2023/10/23 02:38:44;;;;;;;;;6.00;4.00;;;;;12.30;80.04;99612.38;5096692;28;8893;-57
2023/10/23 02:41:11;;;;;;;;;2.00;1.50;;;;;12.24;80.20;99604.94;5096807;28;8852;-57
2023/10/23 02:43:39;;;;;;;;;6.00;5.00;;;;;12.21;80.19;99611.38;5097372;28;8845;-57
2023/10/23 02:46:06;;;;;;;;;3.50;3.00;;;;;12.16;80.24;99613.63;5096651;28;8815;-57
2023/10/23 02:48:34;;;;;;;;;4.00;3.00;;;;;12.12;80.58;99619.38;5096902;28;8815;-57
2023/10/23 02:51:02;;;;;;;;;4.00;3.00;;;;;12.06;80.38;99611.94;5096766;28;8842;-57
2023/10/23 02:53:30;;;;;;;;;5.00;5.00;;;;;12.02;80.38;99613.19;5096500;28;8914;-57
2023/10/23 02:55:58;;;;;;;;;4.50;3.75;;;;;11.98;80.38;99619.78;5096305;28;8846;-56
2023/10/23 02:58:26;;;;;;;;;3.50;3.50;;;;;11.93;80.44;99613.19;5096843;28;8804;-57
2023/10/23 03:00:54;;;;;;;;;5.50;5.00;;;;;11.87;80.69;99627.06;5096427;28;8833;-57
2023/10/23 03:03:21;;;;;;;;;4.00;4.00;;;;;11.80;80.78;99631.25;5096732;28;8815;-58
2023/10/23 03:05:49;;;;;;;;;5.00;4.00;;;;;11.76;80.89;99630.69;5096746;28;8945;-57
2023/10/23 03:08:16;;;;;;;;;6.00;5.00;;;;;11.77;80.82;99628.88;5096374;28;8811;-57
2023/10/23 03:10:44;;;;;;;;;3.25;3.25;;;;;11.80;81.11;99637.47;5096754;28;8870;-57
2023/10/23 03:13:12;;;;;;;;;3.50;3.50;;;;;11.86;80.45;99628.91;5097064;28;8827;-58
2023/10/23 03:15:41;;;;;;;;;4.00;4.00;;;;;11.93;80.85;99632.72;5096400;28;8847;-57
2023/10/23 03:18:08;;;;;;;;;6.75;5.50;;;;;11.98;80.07;99623.31;5096403;28;8812;-57
2023/10/23 03:20:36;;;;;;;;;4.00;4.00;;;;;12.03;80.44;99629.09;5097321;28;8870;-57
2023/10/23 03:23:04;;;;;;;;;3.50;3.50;;;;;12.07;80.53;99624.31;5096426;28;8819;-57
2023/10/23 03:25:32;;;;;;;;;2.50;2.50;;;;;12.09;79.88;99625.00;5096443;28;9528;-57
2023/10/23 03:27:59;;;;;;;;;4.00;4.00;;;;;12.09;79.89;99623.16;5095817;28;8881;-57
2023/10/23 03:30:27;;;;;;;;;4.00;3.00;;;;;12.09;79.48;99628.50;5096285;28;9607;-56
2023/10/23 03:32:54;;;;;;;;;3.25;3.25;;;;;12.11;80.25;99620.38;5096057;28;8823;-58
2023/10/23 03:35:22;;;;;;;;;3.25;3.25;;;;;12.08;80.51;99624.16;5095778;28;8830;-57
2023/10/23 03:37:50;;;;;;;;;5.50;3.75;;;;;12.06;80.46;99634.13;5095680;28;8835;-57
2023/10/23 03:40:18;;;;;;;;;4.50;4.50;;;;;12.05;80.16;99631.59;5095949;28;8822;-58
2023/10/23 03:42:45;;;;;;;;;1.00;1.00;;;;;12.04;80.42;99627.25;5096083;28;8811;-57
2023/10/23 03:45:13;;;;;;;;;1.00;1.00;;;;;12.01;80.35;99625.69;5095966;28;8930;-57
2023/10/23 03:47:40;;;;;;;;;1.50;1.50;;;;;12.00;80.38;99628.53;5095979;28;8953;-56
2023/10/23 03:50:08;;;;;;;;;4.00;4.00;;;;;11.97;80.28;99634.13;5095361;28;8815;-57
2023/10/23 03:52:36;;;;;;;;;3.50;3.50;;;;;11.95;80.37;99636.09;5095350;28;8827;-56
2023/10/23 03:55:03;;;;;;;;;6.00;4.00;;;;;11.92;80.47;99628.38;5095112;28;9512;-58
2023/10/23 03:57:31;;;;;;;;;3.00;3.00;;;;;11.91;80.48;99633.84;5095174;28;8822;-56
2023/10/23 04:00:00;;;;;;;;;8.00;4.00;;;;;11.92;80.37;99638.19;5095526;28;9501;-57
2023/10/23 04:02:28;;;;;;;;;6.00;5.50;;;;;11.93;80.49;99630.06;5095301;28;8852;-57
2023/10/23 04:04:56;;;;;;;;;3.75;3.25;;;;;11.93;80.58;99638.06;5095364;28;8836;-57
2023/10/23 04:07:23;;;;;;;;;6.00;4.00;;;;;11.95;80.27;99641.41;5094758;28;8818;-59
2023/10/23 04:09:51;;;;;;;;;2.50;1.75;;;;;11.94;80.44;99645.06;5092009;28;8841;-57
2023/10/23 04:12:18;;;;;;;;;2.50;2.50;;;;;11.95;80.27;99647.59;5083029;28;8871;-56
2023/10/23 04:14:46;;;;;;;;;5.50;5.50;;;;;11.97;80.09;99647.47;5093982;28;8833;-57
2023/10/23 04:17:14;;;;;;;;;5.00;4.00;;;;;11.97;79.99;99650.13;5093802;28;8806;-56
2023/10/23 04:19:41;;;;;;;;;2.50;2.50;;;;;11.97;80.63;99652.78;5094419;28;8837;-56
2023/10/23 04:22:09;;;;;;;;;3.00;3.00;;;;;11.94;80.14;99645.06;5094341;28;9553;-57
2023/10/23 04:24:37;;;;;;;;;3.50;3.50;;;;;11.91;80.60;99644.50;5094487;28;8880;-57
2023/10/23 04:27:05;;;;;;;;;7.00;6.25;;;;;11.89;80.30;99646.47;5094379;28;8826;-57
2023/10/23 04:29:32;;;;;;;;;6.50;6.00;;;;;11.86;80.95;99646.72;5094127;28;8817;-57
2023/10/23 04:32:00;;;;;;;;;3.25;3.25;;;;;11.85;80.74;99643.25;5094593;28;9526;-57
2023/10/23 04:34:27;;;;;;;;;5.50;5.00;;;;;11.84;80.51;99654.03;5094308;28;8941;-56
2023/10/23 04:36:55;;;;;;;;;4.00;4.00;;;;;11.82;80.87;99661.34;5094435;28;8848;-57
2023/10/23 04:39:22;;;;;;;;;4.00;3.75;;;;;11.80;80.85;99655.28;5094328;28;8837;-56
2023/10/23 04:41:50;;;;;;;;;3.00;1.50;;;;;11.82;80.54;99661.34;5094382;28;8845;-57
2023/10/23 04:44:18;;;;;;;;;3.00;3.00;;;;;11.83;80.38;99661.19;5094686;28;8853;-56
2023/10/23 04:46:47;;;;;;;;;3.00;3.00;;;;;11.88;80.15;99666.97;5097181;28;8853;-56
2023/10/23 04:49:15;;;;;;;;;4.00;4.00;;;;;11.90;80.37;99667.66;5098867;28;8833;-56
2023/10/23 04:51:42;;;;;;;;;4.00;4.00;;;;;11.93;80.76;99664.75;5098567;28;8864;-56
2023/10/23 04:54:10;;;;;;;;;4.00;4.00;;;;;11.97;80.32;99660.78;5098130;28;8845;-57
2023/10/23 04:56:38;;;;;;;;;6.00;5.50;;;;;12.00;80.11;99657.88;5098458;28;8883;-57
2023/10/23 04:59:06;;;;;;;;;2.75;2.50;;;;;12.01;80.10;99664.91;5098451;28;8860;-57
2023/10/23 05:01:34;;;;;;;;;5.00;3.00;;;;;12.01;80.11;99659.56;5098291;28;8828;-57
2023/10/23 05:04:02;;;;;;;;;3.75;3.75;;;;;12.00;80.23;99653.38;5098346;28;8967;-57
2023/10/23 05:06:30;;;;;;;;;5.00;4.00;;;;;11.99;79.89;99653.50;5077535;28;8870;-56
2023/10/23 05:08:58;;;;;;;;;3.00;3.00;;;;;11.96;80.38;99653.78;5077974;28;8820;-58
2023/10/23 05:11:25;;;;;;;;;5.50;5.00;;;;;11.92;80.09;99659.53;5077430;28;8871;-56
2023/10/23 05:13:54;;;;;;;;;3.00;3.00;;;;;11.86;80.65;99655.59;5084554;28;8828;-56
2023/10/23 05:16:21;;;;;;;;;3.00;3.00;;;;;11.80;80.25;99657.94;5097307;28;8946;-56
2023/10/23 05:18:49;;;;;;;;;4.50;4.00;;;;;11.74;80.33;99656.69;5097446;28;9517;-57
2023/10/23 05:21:17;;;;;;;;;5.50;3.00;;;;;11.69;80.78;99652.72;5097150;28;8836;-57
2023/10/23 05:23:45;;;;;;;;;4.00;4.00;;;;;11.65;80.58;99653.97;5096984;28;8906;-58
2023/10/23 05:26:14;;;;;;;;;4.50;4.00;;;;;11.61;80.60;99658.72;5096926;28;8859;-56
2023/10/23 05:28:42;;;;;;;;;4.00;4.00;;;;;11.57;81.00;99651.09;5097300;28;9627;-58
2023/10/23 05:31:10;;;;;;;;;4.00;4.00;;;;;11.51;81.20;99659.66;5096216;28;9606;-57
2023/10/23 05:33:38;;;;;;;;;6.50;6.00;;;;;11.44;81.34;99655.84;5096767;28;8866;-57
2023/10/23 05:36:06;;;;;;;;;4.25;4.25;;;;;11.38;81.52;99662.53;5096934;28;8891;-57
2023/10/23 05:38:33;;;;;;;;;5.50;4.00;;;;;11.33;81.57;99659.44;5096634;28;8897;-57
2023/10/23 05:41:02;;;;;;;;;3.50;3.50;;;;;11.29;81.30;99662.53;5096314;28;8879;-57
2023/10/23 05:43:29;;;;;;;;;5.00;5.00;;;;;11.24;81.57;99662.91;5095991;28;8954;-57
2023/10/23 05:45:57;;;;;;;;;3.25;3.00;;;;;11.18;81.68;99660.78;5096288;28;8846;-56
2023/10/23 05:48:25;;;;;;;;;6.00;4.50;;;;;11.14;81.65;99672.66;5096253;28;8822;-57
2023/10/23 05:50:53;;;;;;;;;3.50;3.00;;;;;11.15;81.80;99670.88;5096183;28;8850;-57
2023/10/23 05:53:20;;;;;;;;;3.00;3.00;;;;;11.14;81.97;99670.00;5095569;28;8859;-59
2023/10/23 05:55:48;;;;;;;;;7.00;5.00;;;;;11.17;81.56;99669.75;5095500;28;8847;-56
2023/10/23 05:58:16;;;;;;;;;3.50;3.25;;;;;11.21;81.16;99667.69;5094769;28;8812;-57
2023/10/23 06:00:43;;;;;;;;;6.50;4.00;;;;;11.23;81.36;99669.22;5095564;28;8903;-56
2023/10/23 06:03:13;;;;;;;;;5.50;4.00;;;;;11.25;81.56;99674.41;5094687;28;8844;-57
2023/10/23 06:05:41;;;;;;;;;4.50;4.50;;;;;11.26;81.50;99668.97;5095660;28;8820;-57
2023/10/23 06:08:08;;;;;;;;;3.25;3.25;;;;;11.29;81.38;99671.34;5095391;28;8827;-56
2023/10/23 06:10:36;;;;;;;;;4.33;4.33;;;;;11.31;81.21;99669.38;5095042;28;8836;-57
2023/10/23 06:13:04;;;;;;;;;1.00;0.75;;;;;11.33;81.33;99667.44;5110258;28;9517;-57
2023/10/23 06:15:32;;;;;;;;;6.75;6.00;;;;;11.33;80.94;99664.78;5115080;28;8851;-57
2023/10/23 06:18:00;;;;;;;;;5.50;5.50;;;;;11.33;81.24;99672.78;5114545;28;8843;-57
2023/10/23 06:20:27;;;;;;;;;3.75;3.75;;;;;11.32;80.86;99671.09;5114756;28;8827;-56
2023/10/23 06:22:55;;;;;;;;;7.00;7.00;;;;;11.32;80.90;99676.44;5113620;28;8816;-57
2023/10/23 06:25:23;;;;;;;;;7.50;7.00;;;;;11.31;80.95;99672.03;5114632;28;8862;-57
2023/10/23 06:27:51;;;;;;;;;11.50;8.50;;;;;11.31;81.08;99672.03;5115593;28;8858;-56
2023/10/23 06:30:19;;;;;;;;;9.50;9.50;;;;;11.33;80.84;99670.13;5115614;28;8836;-57
2023/10/23 06:32:47;;;;;;;;;7.00;6.00;;;;;11.34;80.96;99666.47;5115613;28;8827;-57
2023/10/23 06:35:15;;;;;;;;;7.25;6.50;;;;;11.32;80.95;99679.09;5115784;28;8912;-57
2023/10/23 06:37:42;;;;;;;;;3.75;3.75;;;;;11.29;81.18;99663.34;5115569;28;8844;-57
2023/10/23 06:40:11;;;;;;;;;3.75;3.25;;;;;11.25;80.99;99677.94;5115410;28;8827;-57
2023/10/23 06:42:39;;;;;;;;;6.75;6.25;;;;;11.21;81.46;99678.34;5115048;28;8835;-57
2023/10/23 06:45:06;;;;;;;;;5.50;5.50;;;;;11.17;81.32;99680.41;5114509;28;8847;-57
2023/10/23 06:47:34;;;;;;;;;4.50;4.50;;;;;11.12;81.88;99668.44;5114364;28;8858;-57
2023/10/23 06:50:04;;;;;;;;;3.75;3.00;;;;;11.10;81.91;99670.41;5114960;28;8824;-56
2023/10/23 06:52:33;;;;;;;;;7.00;6.75;;;;;11.06;81.73;99674.34;5114976;28;8835;-57
2023/10/23 06:55:02;;;;;;;;;3.50;3.00;;;;;11.04;81.62;99674.44;5114631;28;8828;-57
2023/10/23 06:57:30;;;;;;;;;3.50;1.50;;;;;11.05;81.97;99673.47;5114629;28;8840;-57
2023/10/23 06:59:58;;;;;;;;;6.75;6.00;;;;;11.06;81.94;99675.16;5115323;28;8832;-57
2023/10/23 07:02:26;;;;;;;;;6.00;4.00;;;;;11.08;81.24;99675.84;5115206;28;8831;-57
2023/10/23 07:04:53;;;;;;;;;7.00;6.00;;;;;11.09;81.34;99676.72;5115340;28;8868;-57
2023/10/23 07:07:21;;;;;;;;;4.00;4.00;;;;;11.11;81.84;99682.75;5114918;28;8843;-56
2023/10/23 07:09:58;;;;;;;;;5.00;4.00;;;;;11.13;81.45;99684.31;5115477;28;8824;-57
2023/10/23 07:12:27;;;;;;;;;3.25;3.00;;;;;11.15;81.34;99684.19;5114793;28;8846;-56
2023/10/23 07:14:55;;;;;;;;;3.25;3.00;;;;;11.16;81.39;99683.22;5114971;28;8849;-57
2023/10/23 07:17:23;;;;;;;;;5.00;4.00;;;;;11.19;80.98;99682.94;5115353;28;8831;-57
2023/10/23 07:19:51;;;;;;;;;5.00;3.50;;;;;11.23;81.04;99685.19;5114819;28;9626;-56
2023/10/23 07:22:19;;;;;;;;;5.00;4.00;;;;;11.29;80.87;99683.84;5114756;28;8840;-57
2023/10/23 07:24:47;;;;;;;;;4.00;3.00;;;;;11.33;81.21;99688.78;5114693;28;8893;-57
2023/10/23 07:27:16;;;;;;;;;10.00;9.50;;;;;11.39;80.59;99680.22;5114669;28;9539;-57
2023/10/23 07:29:43;;;;;;;;;4.00;3.25;;;;;11.46;80.90;99680.56;5114410;28;8828;-57
2023/10/23 07:32:11;;;;;;;;;4.00;4.00;;;;;11.55;80.45;99687.75;5114838;28;8854;-57
2023/10/23 07:34:39;;;;;;;;;6.00;6.00;;;;;11.63;80.67;99675.47;5114338;28;8842;-58
2023/10/23 07:37:11;;;;;;;;;6.75;5.50;;;;;11.71;79.95;99675.63;5114809;28;8941;-57
2023/10/23 07:39:47;;;;;;;;;3.75;3.75;;;;;11.84;80.05;99678.88;5114614;28;8836;-57
2023/10/23 07:42:15;;;;;;;;;7.50;6.00;;;;;11.98;79.90;99677.66;5114110;28;8987;-56
2023/10/23 07:44:43;;;;;;;;;3.00;1.50;;;;;12.11;79.77;99674.59;5113717;28;8820;-57
2023/10/23 07:47:11;;;;;;;;;4.00;4.00;;;;;12.27;79.17;99674.03;5113424;28;8844;-57
2023/10/23 07:49:39;;;;;;;;;6.25;5.00;;;;;12.41;79.03;99676.31;5113636;28;8909;-58
2023/10/23 07:52:08;;;;;;;;;3.25;2.50;;;;;12.53;78.60;99675.19;5113901;28;8881;-58
2023/10/23 07:54:35;;;;;;;;;4.00;4.00;;;;;12.62;79.08;99679.69;5113809;28;8853;-58
2023/10/23 07:57:03;;;;;;;;;6.00;6.00;;;;;12.69;78.76;99676.28;5113772;28;8828;-58
2023/10/23 07:59:32;;;;;;;;;3.25;3.25;;;;;12.76;78.54;99677.41;5114084;28;8862;-59
2023/10/23 08:02:00;;;;;;;;;5.00;5.00;;;;;12.84;78.27;99668.69;5114096;28;9532;-57
2023/10/23 08:04:28;;;;;;;;;3.00;3.00;;;;;12.92;78.42;99666.16;5113125;28;8816;-58
2023/10/23 08:06:56;;;;;;;;;3.50;3.50;;;;;13.01;78.29;99665.31;5113209;28;8828;-59
2023/10/23 08:09:24;;;;;;;;;3.00;3.00;;;;;13.12;78.28;99671.34;5113586;28;8820;-58
2023/10/23 08:11:53;;;;;;;;;3.25;3.25;;;;;13.28;77.69;99673.41;5113477;28;8848;-58
2023/10/23 08:14:22;;;;;;;;;3.00;3.00;;;;;13.43;76.55;99667.44;5112773;28;8848;-59
2023/10/23 08:16:52;;;;;;;;;3.00;3.00;;;;;13.55;77.17;99668.09;5113197;28;8846;-58
2023/10/23 08:19:20;;;;;;;;;3.00;3.00;;;;;13.65;76.49;99666.19;5113201;28;8921;-57
2023/10/23 08:21:48;;;;;;;;;3.75;3.75;;;;;13.73;76.60;99658.31;5112667;28;8954;-58
2023/10/23 08:24:16;;;;;;;;;3.00;3.00;;;;;13.82;76.28;99662.75;5111950;28;8896;-58
2023/10/23 08:26:44;;;;;;;;;1.00;1.00;;;;;13.90;76.56;99654.81;5112192;28;8832;-57
2023/10/23 08:29:12;;;;;;;;;5.50;4.00;;;;;14.03;76.29;99663.34;5112210;28;8859;-58
2023/10/23 08:31:42;;;;;;;;;4.00;4.00;;;;;14.16;75.85;99650.41;5111815;28;8832;-58
2023/10/23 08:34:10;;;;;;;;;6.50;3.50;;;;;14.24;75.54;99654.06;5111884;28;8840;-59
2023/10/23 08:36:38;;;;;;;;;3.00;1.80;;;;;14.33;75.62;99657.66;5112256;28;8824;-59
2023/10/23 08:39:06;;;;;;;;;1.00;1.00;;;;;14.40;75.54;99642.63;5112469;28;8914;-60
2023/10/23 08:41:36;;;;;;;;;2.50;2.00;;;;;14.47;75.18;99638.34;5113059;28;8892;-58
2023/10/23 08:44:06;;;;;;;;;3.00;2.50;;;;;14.56;75.14;99640.13;5113049;28;8843;-59
2023/10/23 08:46:34;;;;;;;;;4.00;4.00;;;;;14.64;75.21;99640.19;5113192;28;8905;-58
2023/10/23 08:49:02;;;;;;;;;1.00;1.00;;;;;14.69;75.43;99636.06;5113298;28;9671;-58
2023/10/23 08:51:30;;;;;;;;;3.00;1.80;;;;;14.73;75.08;99639.25;5112925;28;8908;-58
2023/10/23 08:53:58;;;;;;;;;3.00;3.00;;;;;14.74;74.94;99638.25;5113010;28;9509;-59
2023/10/23 08:56:38;;;;;;;;;4.00;3.00;;;;;14.76;74.91;99633.56;5112056;28;8831;-58
2023/10/23 08:59:06;;;;;;;;;3.60;3.00;;;;;14.77;75.12;99640.63;5112259;28;9745;-57
2023/10/23 09:01:35;;;;;;;;;3.00;3.00;;;;;14.78;75.23;99637.78;5112199;28;8827;-56
2023/10/23 09:04:04;;;;;;;;;1.40;1.00;;;;;14.80;75.01;99634.97;5112954;28;8852;-56
2023/10/23 09:06:34;;;;;;;;;3.25;3.25;;;;;14.80;74.66;99633.09;5112614;28;8820;-56
2023/10/23 09:09:03;;;;;;;;;4.00;3.50;;;;;14.81;75.43;99637.47;5112911;28;9600;-56
2023/10/23 09:11:31;;;;;;;;;3.25;3.00;;;;;14.84;74.61;99633.63;5113113;28;9516;-56
2023/10/23 09:13:59;;;;;;;;;3.00;3.00;;;;;14.91;74.71;99623.97;5113324;28;8832;-56
2023/10/23 09:16:27;;;;;;;;;3.50;3.00;;;;;14.95;74.54;99631.53;5113282;28;8842;-56
2023/10/23 09:18:56;;;;;;;;;3.40;3.00;;;;;14.98;74.97;99623.19;5112622;28;8828;-56
2023/10/23 09:21:24;;;;;;;;;1.00;1.00;;;;;15.03;74.91;99630.78;5112176;28;8858;-56
2023/10/23 09:23:53;;;;;;;;;3.80;3.80;;;;;15.08;74.88;99625.75;5112629;28;8839;-59
2023/10/23 09:26:22;;;;;;;;;3.00;3.00;;;;;15.13;74.12;99618.09;5111926;28;8858;-59
2023/10/23 09:28:52;;;;;;;;;3.60;3.40;;;;;15.16;74.13;99617.78;5112825;28;8842;-59
2023/10/23 09:31:20;;;;;;;;;3.60;3.00;;;;;15.19;74.31;99622.81;5112907;28;8820;-56
2023/10/23 09:33:48;;;;;;;;;2.60;1.00;;;;;15.24;74.16;99624.03;5115139;28;8843;-58
2023/10/23 09:36:16;;;;;;;;;1.80;1.00;;;;;15.32;73.63;99623.28;5116587;28;8843;-58
2023/10/23 09:38:44;;;;;;;;;1.00;0.60;;;;;15.41;73.89;99619.63;5117355;28;8832;-57
2023/10/23 09:41:12;;;;;;;;;2.20;2.20;;;;;15.50;73.66;99614.13;5117319;28;8863;-56
2023/10/23 09:43:40;;;;;;;;;2.60;1.40;;;;;15.60;73.38;99619.34;5116707;28;8824;-57
2023/10/23 09:46:09;;;;;;;;;4.00;3.80;;;;;15.69;73.59;99619.22;5116457;28;8844;-58
2023/10/23 09:48:38;;;;;;;;;3.80;3.40;;;;;15.77;73.52;99610.38;5115796;28;8850;-57
2023/10/23 09:51:06;;;;;;;;;3.40;1.00;;;;;15.88;72.73;99607.38;5115977;28;8954;-56
2023/10/23 09:53:34;;;;;;;;;4.00;2.20;;;;;16.01;72.73;99600.53;5115671;28;8916;-57
2023/10/23 09:56:01;;;;;;;;;6.00;4.40;;;;;16.19;72.14;99604.75;5115970;28;8861;-57
2023/10/23 09:58:29;;;;;;;;;3.00;3.00;;;;;16.49;71.81;99606.00;5115426;28;8823;-57
2023/10/23 10:00:57;;;;;;;;;3.00;2.60;;;;;16.90;70.62;99603.13;5115363;28;8843;-57
2023/10/23 10:03:27;;;;;;;;;3.20;2.20;;;;;17.38;69.64;99600.34;5116119;28;8844;-58
2023/10/23 10:05:56;;;;;;;;;3.00;3.00;;;;;17.72;68.64;99598.22;5116010;28;8900;-57
2023/10/23 10:08:24;;;;;;;;;2.20;1.40;;;;;17.90;68.24;99593.38;5116016;28;8835;-57
2023/10/23 10:10:52;;;;;;;;;3.00;3.00;;;;;17.93;68.72;99590.31;5116290;28;8859;-57
2023/10/23 10:13:20;;;;;;;;;2.80;2.80;;;;;17.90;68.77;99590.69;5116198;28;8866;-58
2023/10/23 10:15:48;;;;;;;;;3.00;2.60;;;;;17.91;68.89;99588.84;5116101;28;8858;-58
2023/10/23 10:18:16;;;;;;;;;3.60;3.20;;;;;17.84;68.90;99583.31;5116133;28;8905;-57
2023/10/23 10:20:44;;;;;;;;;3.60;3.60;;;;;17.79;69.45;99585.72;5115297;28;8836;-57
2023/10/23 10:23:12;;;;;;;;;0.40;0.40;;;;;17.72;69.97;99584.75;5116016;28;8846;-56
2023/10/23 10:25:40;;;;;;;;;3.20;3.00;;;;;17.70;69.61;99575.16;5116468;28;8962;-57
2023/10/23 10:28:08;;;;;;;;;1.80;1.80;;;;;17.70;70.53;99575.16;5115619;28;8854;-58
2023/10/23 10:30:36;;;;;;;;;3.20;3.20;;;;;17.71;70.28;99574.13;5114709;28;8850;-57
2023/10/23 10:33:04;;;;;;;;;0.20;0.20;;;;;17.71;70.14;99564.22;5115300;28;8831;-57
2023/10/23 10:35:52;;;;;;;;;1.80;1.80;;;;;17.72;70.34;99557.81;5115563;28;8862;-58
2023/10/23 10:38:21;;;;;;;;;3.00;3.00;;;;;17.77;69.91;99559.97;5115194;28;9525;-58
2023/10/23 10:40:49;;;;;;;;;2.20;2.20;;;;;17.82;69.68;99554.88;5115004;28;8924;-58
2023/10/23 10:43:18;;;;;;;;;2.40;2.20;;;;;17.83;70.16;99548.50;5114473;28;8830;-57
2023/10/23 10:45:46;;;;;;;;;2.20;1.00;;;;;17.86;69.91;99551.66;5114663;28;8877;-57
2023/10/23 10:48:15;;;;;;;;;1.40;1.40;;;;;17.90;70.14;99547.59;5114781;28;8847;-57
2023/10/23 10:50:44;;;;;;;;;1.40;1.00;;;;;17.93;69.98;99546.41;5114595;28;8949;-57
2023/10/23 10:53:11;;;;;;;;;0.00;0.00;;;;;17.92;70.35;99542.84;5114703;28;8840;-58
2023/10/23 10:55:39;;;;;;;;;3.00;3.00;;;;;17.89;70.31;99537.81;5114511;28;8832;-57
2023/10/23 10:58:07;;;;;;;;;3.60;3.00;;;;;17.83;70.03;99527.75;5113936;28;8994;-57
2023/10/23 11:00:37;;;;;;;;;1.00;1.00;;;;;17.75;70.42;99532.38;5113842;28;8816;-58
2023/10/23 11:03:05;;;;;;;;;4.00;3.00;;;;;17.65;70.36;99532.59;5114015;28;9509;-58
2023/10/23 11:05:34;;;;;;;;;3.00;3.00;;;;;17.63;70.54;99531.91;5112746;28;8848;-57
2023/10/23 11:08:03;;;;;;;;;3.60;3.60;;;;;17.62;70.99;99526.72;5112151;28;8974;-57
2023/10/23 11:10:34;;;;;;;;;3.40;3.00;;;;;17.68;70.21;99526.84;5113934;28;8853;-57
2023/10/23 11:13:02;;;;;;;;;2.60;2.20;;;;;17.77;70.12;99523.06;5114555;28;8962;-56
2023/10/23 11:15:30;;;;;;;;;1.00;1.00;;;;;17.89;69.63;99516.28;5114678;28;9540;-57
2023/10/23 11:17:59;;;;;;;;;0.60;0.60;;;;;17.97;69.86;99512.66;5114295;28;8823;-58
2023/10/23 11:20:30;;;;;;;;;3.00;3.00;;;;;17.99;69.28;99511.47;5114781;28;8828;-58
2023/10/23 11:22:59;;;;;;;;;1.00;1.00;;;;;18.02;69.37;99508.44;5114151;28;8835;-57
2023/10/23 11:25:27;;;;;;;;;1.00;1.00;;;;;18.00;69.43;99504.25;5112939;28;8842;-57
2023/10/23 11:27:56;;;;;;;;;0.80;0.80;;;;;18.00;69.68;99505.06;5113035;28;8970;-57
2023/10/23 11:30:23;;;;;;;;;1.00;0.00;;;;;18.02;69.75;99504.91;5113022;28;8831;-57
2023/10/23 11:32:52;;;;;;;;;1.00;1.00;;;;;18.03;69.23;99493.94;5113311;28;8823;-58
2023/10/23 11:35:20;;;;;;;;;1.00;1.00;;;;;18.07;69.16;99502.50;5112654;28;8847;-58
2023/10/23 11:37:48;;;;;;;;;1.00;1.00;;;;;18.11;69.42;99498.41;5112565;28;8831;-58
2023/10/23 11:40:16;;;;;;;;;1.00;1.00;;;;;18.10;69.30;99491.34;5112625;28;8862;-58
2023/10/23 11:42:46;;;;;;;;;0.00;0.00;;;;;18.10;68.85;99486.81;5112750;28;8828;-58
2023/10/23 11:45:15;;;;;;;;;1.00;1.00;;;;;18.14;69.18;99488.13;5113102;28;8847;-58